Joshua Tree National Park, CA

11:38 PM PDT on July 26, 2016 (GMT -0700)
MesoWest | | Change Station

Elev 1975 ft 34.13 °N, 116.04 °W | Updated 43 minutes ago

Partly Cloudy
Partly Cloudy
98 °F
Feels Like 95 °F
N
0
Wind Variable Wind from North
Gusts 0.0 mph

Today
High -- | Low -- °F
--% Chance of Precip.
Yesterday
High -- | Low -- °F
Precip. -- in
Pressure 29.80 in
Visibility 10.0 miles
Clouds Few 15000 ft
Heat Index 95 °F
Dew Point 51 °F
Humidity 21%
Rainfall in
Snow Depth Not available.
5:51 AM 7:49 PM
Waning Gibbous, 46% visible
METAR KNXP 270556Z 27008KT 10SM FEW150 36/09 A2993 RMK AO2 SLP091 T03560094 10417 20356 51019
Pressure 29.80 in
Visibility 10.0 miles
Clouds Few 15000 ft
Heat Index 95 °F
Dew Point 51 °F
Humidity 21%
Rainfall in
Snow Depth Not available.
5:51 AM 7:49 PM
Waning Gibbous, 46% visible
METAR KNXP 270556Z 27008KT 10SM FEW150 36/09 A2993 RMK AO2 SLP091 T03560094 10417 20356 51019

10-Day Weather Forecast

Almanac

Astronomy

Jul. 26, 2016 Rise Set
Actual Time
Civil Twilight
Nautical Twilight
Astronomical Twilight
Moon
Length of Visible Light
Length of Day
Tomorrow will be .
, % of the Moon is Illuminated

Today's Extremes

State Highs State Lows

Community

WunderPhotos

Upload Photos

1,927,818 photos uploaded!

WunderBlog® & News

Nearby

Air Quality

  Air Quality AQ Index Pollutant
Not available.

Snow Depth

Station Depth Elevation

Earthquake Activity

City Distance Mag. Time & Date
Minimum magnitude displayed is 2.5.

Coastal Water Temperatures

Place Temperature

Stations

Nearby Weather Stations

Station Location Temp. Windchill Dew Point Humidity Wind Precip. Elev Updated Type
                   

Watches & Warnings

There are currently no watches in effect.